Anamur, Turkey
Current Conditions -  °F | °C
As of 6:50 AM on Monday 20 Oct 2014 (Local Time) from LTFG Reporting Station
Clear Clear  
Wind Chill: 66°   Ceiling: Unl
Heat Index: 66°   Visibility: 6mi
Dew Point: 19°   Wind: 10mph
Humidity: 17%   Direction: 30°NNE
Pressure: 29.94"   Gusts: NA
Location:  36.08°N, 32.84°E
Report Text: LTFG 200350Z 03009KT CAVOK 19/M07 Q1014
Loading
Personal Weather Stations






























Interactive Weather Map New forecast layout! Learn more

10-Day Weather Forecast

Advertisements
Track Severe Weather on mobile